Tiempo atmosférico en la estación meteorológica de Atzeneta Del Maestrat, Castelló/Castellón (420 m.)



Fecha
DESCASC
Temp. máxima en grados centígrados (hora)
DESCASC
Temp. mínima en grados centígrados (hora)
DESCASC
Temp. media en grados centígrados
DESCASC
Racha de viento máxima en m/sg (hora)
DESCASC
Velocidad máxima media en intervalos de 10 minutos(hora)
DESCASC
Precipitaciones diarias en mm
DESCASC
Precipitaciones de 00:00 a 06:00 en mm
DESCASC
Precipitaciones de 06:00 a 12:00 en mm
DESCASC
Precipitaciones de 12:00 a 18:00 en mm
DESCASC
Precipitaciones de 18:00 a 24:00 en mm
DESCASC
05-04-2020 17.4 (15:00) 3.5 (04:10) 10.4 7.5 (16:00) 4.72 (16:10) 0 0 0 0 0
04-04-2020 18.4 (14:20) 2.3 (07:40) 10.3 8.61 (16:30) 5.28 (16:30) 0 0 0 0 0
03-04-2020 17.6 (13:40) 6.4 (23:59) 12 7.22 (13:50) 4.17 (13:50) 0 0 0 0 0
02-04-2020 13.4 (13:50) 6.3 (00:00) 9.8 6.94 (11:10) 3.89 (15:00) 6.4 0.4 0 5 1
01-04-2020 15.2 (16:10) 9 (00:00) 12.1 10.83 (13:40) 5 (13:50) 68.4 22.8 35.8 6 3.8
31-03-2020 9.5 (17:40) 3.4 (00:00) 6.5 8.61 (23:50) 3.89 (23:50) 79.8 8.8 26 33.2 11.8
30-03-2020 11.4 (01:10) 3.4 (00:00) 7.4 8.33 (06:10) 3.61 (05:10) 5.6 0 0 1.4 4.2
29-03-2020 21.3 (16:20) 2.7 (00:00) 12 7.78 (15:10) 4.44 (16:10) 0 0 0 0 0
28-03-2020 16 (16:50) 0.9 (00:00) 8.4 6.11 (17:10) 3.61 (17:40) 0 0 0 0 0
27-03-2020 13.7 (15:10) 2 (00:00) 7.8 7.5 (13:20) 3.89 (13:20) 0 0 0 0 0
26-03-2020 11.9 (12:20) 0.9 (00:00) 6.4 16.39 (11:00) 9.17 (14:00) 0 0 0 0 0
25-03-2020 9.1 (15:40) 4.3 (00:00) 6.7 5 (16:40) 3.06 (16:30) 6.6 2.8 2.4 1.4 0
24-03-2020 10.4 (00:00) 7.7 (00:00) 9 8.33 (09:10) 4.72 (11:40) 4.8 2.4 1.2 0 1.2
23-03-2020 12.9 (12:00) 9.4 (00:00) 11.1 5.28 (13:10) 3.33 (13:10) 25 1.4 1.2 16.8 5.6
22-03-2020 12.7 (15:50) 9 (07:00) 10.8 4.72 (18:00) 2.5 (18:00) 3.8 0.4 2.4 1 0
21-03-2020 13.4 (13:30) 3.5 (00:00) 8.4 5 (14:40) 3.06 (14:40) 0.2 0 0 0 0.2
20-03-2020 14.1 (13:50) 6.1 (00:00) 10.1 6.94 (14:30) 3.89 (14:40) 0 0 0 0 0
19-03-2020 17.2 (14:20) 4 (00:00) 10.6 7.22 (16:40) 4.17 (17:20) 0 0 0 0 0
18-03-2020 15.1 (14:50) 5.9 (00:00) 10.5 6.11 (12:00) 3.61 (13:00) 0.2 0.2 0 0 0
17-03-2020 13 (00:30) 9.1 (00:00) 11.1 9.72 (01:30) 5 (02:10) 44.6 20.8 23.8 0 0
16-03-2020 12.9 (23:20) 10 (00:00) 11.4 8.89 (19:00) 4.72 (19:10) 23 1 9.4 9 3.6
15-03-2020 19.1 (13:50) 4.4 (00:00) 11.8 8.33 (15:00) 6.11 (14:50) 0 0 0 0 0
14-03-2020 20.8 (14:50) 5.8 (00:00) 13.3 6.94 (14:50) 3.89 (14:50) 0 0 0 0 0
13-03-2020 18.8 (13:10) 6.5 (07:20) 12.6 6.67 (15:50) 4.72 (16:00) 0 0 0 0 0
12-03-2020 25.7 (15:00) 8 (00:00) 16.9 5.83 (15:40) 4.17 (15:40) 0 0 0 0 0
11-03-2020 26.6 (13:20) 6.6 (00:00) 16.6 8.06 (14:30) 5 (14:20) 0 0 0 0 0
10-03-2020 16.9 (14:30) 6.3 (00:00) 11.6 13.61 (00:10) 4.72 (00:20) 0 0 0 0 0
09-03-2020 20.2 (15:30) 6.7 (00:00) 13.5 14.17 (23:59) 6.94 (23:59) 0 0 0 0 0
08-03-2020 21.1 (14:20) 1.8 (00:00) 11.5 8.61 (13:10) 3.89 (16:00) 0 0 0 0 0

Gráficas

Temp. máximas Temp. mínimas Temp. medias Precipitaciones Rachas de viento máximas Velocidades máximas media en intervalos de 10 minutos

Datos horarios

Fecha y hora oficial Temperatura (ºC) Velocidad del viento (km/h) Dirección del viento Racha (km/h) Dirección de racha Precipitación (mm) Presión (hPa) Tendencia (hPa) Humedad (%)
2020-04-06 23:00:00 11.9 0 Calma 4 Sudeste 0 -- -- 88
2020-04-06 22:00:00 11.8 4 Sudoeste 13 Sudoeste 0 -- -- 87
2020-04-06 21:00:00 12.2 6 Sur 12 Sudoeste 0 -- -- 84
2020-04-06 20:00:00 12.5 6 Sudoeste 13 Sur 0 -- -- 85
2020-04-06 19:00:00 13.2 6 Sudoeste 15 Sudoeste 0 -- -- 83
2020-04-06 18:00:00 13.9 9 Sudoeste 15 Sudoeste 0 -- -- 78
2020-04-06 17:00:00 14.7 10 Sudeste 19 Este 0 -- -- 75
2020-04-06 16:00:00 15.6 10 Sur 20 Sudeste 0 -- -- 70
2020-04-06 15:00:00 15.9 13 Sur 25 Sur 0 -- -- 68
2020-04-06 14:00:00 16 13 Sur 23 Sudoeste 0 -- -- 69
2020-04-06 13:00:00 17 10 Sur 22 Sudeste 0 -- -- 62
2020-04-06 12:00:00 15.6 7 Sudeste 23 Sudeste 0 -- -- 63
2020-04-06 11:00:00 14.3 3 Sudeste 9 Sudeste 0 -- -- 71
2020-04-06 10:00:00 11.9 0 Calma 5 Sur 0 -- -- 81
2020-04-06 09:00:00 8.1 2 Sudoeste 4 Oeste 0 -- -- 98
2020-04-06 08:00:00 7.4 0 Calma 4 Norte 0 -- -- 96
2020-04-06 07:00:00 7.5 0 Calma 6 Norte 0 -- -- 94
2020-04-06 06:00:00 7.8 2 Norte 4 Norte 0 -- -- 94
2020-04-06 05:00:00 8 0 Calma 3 Oeste 0 -- -- 93
2020-04-06 04:00:00 8.9 0 Calma 4 Noroeste 0 -- -- 92
2020-04-06 03:00:00 9.1 2 Noroeste 4 Oeste 0 -- -- 93
2020-04-06 02:00:00 8.8 0 Calma 3 Sudoeste 0 -- -- 92
2020-04-06 01:00:00 8.6 0 Calma 5 Noroeste 0 -- -- 92
2020-04-06 00:00:00 8.5 5 Noroeste 9 Norte 0 -- -- 90
2020-04-05 23:00:00 9 4 Norte 7 Norte 0 -- -- 87
2020-04-05 22:00:00 10.5 5 Sur 11 Sur 0 -- -- 82
2020-04-05 21:00:00 11.9 5 Sudoeste 18 Sur 0 -- -- 76
2020-04-05 20:00:00 12.8 12 Sudoeste 19 Sudoeste 0 -- -- 73
2020-04-05 19:00:00 13.8 9 Sur 18 Sur 0 -- -- 71
2020-04-05 18:00:00 14.9 8 Sur 21 Sur 0 -- -- 68
2020-04-05 17:00:00 15.3 15 Sur 25 Sur 0 -- -- 66
2020-04-05 16:00:00 16.6 15 Sur 27 Sudoeste 0 -- -- 63
2020-04-05 15:00:00 17.4 12 Sur 22 Sur 0 -- -- 56
2020-04-05 14:00:00 16.2 13 Sur 22 Sur 0 -- -- 51
2020-04-05 13:00:00 16.6 12 Sur 21 Sur 0 -- -- 51
2020-04-05 12:00:00 15.1 11 Sur 18 Sudeste 0 -- -- 61
2020-04-05 11:00:00 11.2 2 Este 4 Nordeste 0 -- -- 73
2020-04-05 10:00:00 7.7 0 Calma 4 Oeste 0 -- -- 85
2020-04-05 09:00:00 5.6 0 Calma 2 Oeste 0 -- -- 97
2020-04-05 08:00:00 4.2 0 Calma 3 Oeste 0 -- -- 97
2020-04-05 07:00:00 3.9 2 Sudoeste 6 Noroeste 0 -- -- 96
2020-04-05 06:00:00 3.9 2 Noroeste 4 Oeste 0 -- -- 97
2020-04-05 05:00:00 3.7 0 Calma 2 Noroeste 0 -- -- 96
2020-04-05 04:00:00 3.6 0 Calma 0 Calma 0 -- -- 94
2020-04-05 03:00:00 4.2 0 Calma 3 Noroeste 0 -- -- 94
2020-04-05 02:00:00 4.6 2 Norte 3 Norte 0 -- -- 93
2020-04-05 01:00:00 5.3 0 Calma 4 Noroeste 0 -- -- 92
2020-04-05 00:00:00 6.2 0 Calma 3 Sudoeste 0 -- -- 90
2020-04-04 23:00:00 7.2 0 Calma 10 Noroeste 0 -- -- 88
2020-04-04 22:00:00 8.2 3 Norte 7 Oeste 0 -- -- 86
2020-04-04 21:00:00 10.5 4 Sudoeste 14 Sur 0 -- -- 83
2020-04-04 20:00:00 12.7 12 Sudoeste 20 Sudoeste 0 -- -- 69
2020-04-04 19:00:00 15.3 12 Sur 24 Sudeste 0 -- -- 57
2020-04-04 18:00:00 15.6 13 Sur 29 Sur 0 -- -- 61
2020-04-04 17:00:00 17.3 16 Sur 31 Sur 0 -- -- 53
2020-04-04 16:00:00 17.7 19 Sur 30 Sudeste 0 -- -- 53
2020-04-04 15:00:00 16.9 16 Sudeste 25 Sudeste 0 -- -- 65
2020-04-04 14:00:00 16.8 9 Sudeste 19 Sur 0 -- -- 60
2020-04-04 13:00:00 14.9 7 Sudeste 14 Sudeste 0 -- -- 60
2020-04-04 12:00:00 14.7 9 Sudeste 15 Sudeste 0 -- -- 55
2020-04-04 11:00:00 13.3 3 Sudeste 6 Sudeste 0 -- -- 61
2020-04-04 10:00:00 8.1 2 Oeste 4 Noroeste 0 -- -- 89
2020-04-04 09:00:00 4.8 0 Calma 2 Norte 0 -- -- 99
2020-04-04 08:00:00 2.5 0 Calma 3 Noroeste 0 -- -- 97
2020-04-04 07:00:00 2.4 0 Calma 3 Sur 0 -- -- 97
2020-04-04 06:00:00 2.8 0 Calma 3 Norte 0 -- -- 97
2020-04-04 05:00:00 3.1 0 Calma 5 Oeste 0 -- -- 96
2020-04-04 04:00:00 3.6 2 Sudoeste 4 Oeste 0 -- -- 96
2020-04-04 03:00:00 4.1 0 Calma 3 Oeste 0 -- -- 95
2020-04-04 02:00:00 4.9 2 Oeste 3 Oeste 0 -- -- 94
2020-04-04 01:00:00 5.7 0 Calma 5 Oeste 0 -- -- 93
2020-04-04 00:00:00 6.4 0 Calma 4 Norte 0 -- -- 90
2020-04-03 23:00:00 7.6 0 Calma 7 Noroeste 0 -- -- 89
2020-04-03 22:00:00 8.9 0 Calma 6 Sudoeste 0 -- -- 85
2020-04-03 21:00:00 10.9 0 Calma 10 Sur 0 -- -- 78
2020-04-03 20:00:00 12.2 9 Sur 21 Sur 0 -- -- 70
2020-04-03 19:00:00 13.9 13 Sur 22 Sur 0 -- -- 64
2020-04-03 18:00:00 16 13 Sur 23 Sur 0 -- -- 60
2020-04-03 17:00:00 16.3 11 Sur 22 Sur 0 -- -- 59
2020-04-03 16:00:00 15.3 14 Sur 23 Sur 0 -- -- 58
2020-04-03 15:00:00 15.8 14 Sur 25 Sur 0 -- -- 54
2020-04-03 14:00:00 17.3 14 Sur 26 Sudeste 0 -- -- 50
2020-04-03 13:00:00 15.7 5 Sudeste 17 Este 0 -- -- 53
2020-04-03 12:00:00 13.6 7 Nordeste 14 Nordeste 0 -- -- 52
2020-04-03 11:00:00 11.8 9 Norte 20 Norte 0 -- -- 57
2020-04-03 10:00:00 9.7 7 Nordeste 16 Nordeste 0 -- -- 63
2020-04-03 09:00:00 8.6 6 Nordeste 22 Norte 0 -- -- 66
2020-04-03 08:00:00 7.5 12 Norte 25 Nordeste 0 -- -- 68
2020-04-03 07:00:00 7.9 10 Norte 18 Norte 0 -- -- 71
2020-04-03 06:00:00 7.5 5 Norte 12 Norte 0 -- -- 88
2020-04-03 05:00:00 8 2 Noroeste 7 Noroeste 0 -- -- 98
2020-04-03 04:00:00 8.3 3 Noroeste 4 Noroeste 0 -- -- 97
2020-04-03 03:00:00 8.7 4 Oeste 6 Oeste 0 -- -- 97
2020-04-03 02:00:00 8.9 0 Calma 3 Nordeste 0 -- -- 98
2020-04-03 01:00:00 8.9 0 Calma 6 Norte 0 -- -- 98
2020-04-03 00:00:00 8.8 2 Este 5 Nordeste 0 -- -- 98
2020-04-02 23:00:00 9 3 Norte 6 Norte 0 -- -- 97
2020-04-02 22:00:00 9.1 0 Calma 8 Oeste 0 -- -- 96
2020-04-02 21:00:00 9.1 4 Sudoeste 8 Oeste 0.2 -- -- 94
2020-04-02 20:00:00 9.4 2 Sur 8 Sur 0.8 -- -- 93
2020-04-02 19:00:00 9.8 4 Sur 17 Sudeste 0 -- -- 93
2020-04-02 18:00:00 10.3 9 Sur 15 Sur 1.2 -- -- 92
2020-04-02 17:00:00 10.7 4 Sur 15 Sudeste 2.2 -- -- 94
2020-04-02 16:00:00 10.8 10 Sudeste 23 Sudeste 1.6 -- -- 92
2020-04-02 15:00:00 12.7 14 Sudeste 24 Sudeste 0 -- -- 82
2020-04-02 14:00:00 13.3 7 Sudeste 13 Este 0 -- -- 74
2020-04-02 13:00:00 12.7 9 Este 17 Este 0 -- -- 72
2020-04-02 12:00:00 12.9 5 Nordeste 25 Norte 0 -- -- 66
2020-04-02 11:00:00 12.6 10 Nordeste 19 Norte 0 -- -- 70
2020-04-02 10:00:00 8.9 3 Sur 5 Sur 0 -- -- 98
2020-04-02 09:00:00 7.3 2 Este 7 Sudoeste 0 -- -- 99
2020-04-02 08:00:00 6.8 3 Sur 6 Norte 0 -- -- 98
2020-04-02 07:00:00 6.4 0 Calma 5 Oeste 0 -- -- 97
2020-04-02 06:00:00 7.1 2 Oeste 5 Oeste 0 -- -- 97
2020-04-02 05:00:00 7 0 Calma 7 Nordeste 0 -- -- 97
2020-04-02 04:00:00 7.1 3 Oeste 4 Oeste 0 -- -- 96
2020-04-02 03:00:00 8 0 Calma 9 Norte 0 -- -- 94
2020-04-02 02:00:00 8.7 0 Calma 7 Este 0.2 -- -- 95
2020-04-02 01:00:00 9.2 0 Calma 5 Sudeste 0.2 -- -- 95
2020-04-02 00:00:00 9.4 4 Este 5 Sudeste 1.4 -- -- 95
2020-04-01 23:00:00 9.6 2 Oeste 9 Este 2.2 -- -- 93
2020-04-01 22:00:00 10.2 0 Calma 14 Este 0 -- -- 86
2020-04-01 21:00:00 10.5 4 Este 16 Nordeste 0 -- -- 83
2020-04-01 20:00:00 12.5 5 Norte 19 Este 0 -- -- 73
2020-04-01 19:00:00 13.1 9 Nordeste 21 Norte 0.2 -- -- 73
2020-04-01 18:00:00 13.6 8 Norte 15 Norte 0.2 -- -- 71
2020-04-01 17:00:00 14.6 9 Norte 30 Norte 0 -- -- 64
2020-04-01 16:00:00 15.1 15 Nordeste 28 Norte 0 -- -- 65
2020-04-01 15:00:00 14.4 17 Nordeste 34 Norte 0 -- -- 68
2020-04-01 14:00:00 13.2 15 Nordeste 39 Norte 0.2 -- -- 81
2020-04-01 13:00:00 10.6 9 Nordeste 30 Nordeste 5.6 -- -- 95
2020-04-01 12:00:00 9.9 11 Norte 35 Nordeste 1.8 -- -- 94
2020-04-01 11:00:00 10.2 13 Nordeste 25 Nordeste 1.6 -- -- 94
2020-04-01 10:00:00 10.1 10 Norte 20 Nordeste 10.4 -- -- 95
2020-04-01 09:00:00 9.9 12 Norte 20 Norte 5.8 -- -- 95
2020-04-01 08:00:00 9.7 6 Nordeste 19 Nordeste 7 -- -- 96
2020-04-01 07:00:00 9.4 3 Nordeste 16 Nordeste 9.2 -- -- 96
2020-04-01 06:00:00 9.4 9 Norte 18 Norte 8.8 -- -- 95
2020-04-01 05:00:00 9.1 6 Norte 18 Nordeste 8.8 -- -- 96
2020-04-01 04:00:00 9.2 12 Nordeste 28 Nordeste 2.6 -- -- 94
2020-04-01 03:00:00 9.1 11 Nordeste 23 Nordeste 2.6 -- -- 95
2020-04-01 02:00:00 9.3 8 Nordeste 28 Nordeste 0 -- -- 93
2020-04-01 01:00:00 9.3 15 Nordeste 34 Nordeste 0 -- -- 93
2020-04-01 00:00:00 9.1 14 Nordeste 31 Nordeste 0.2 -- -- 94
2020-03-31 23:00:00 8.9 12 Nordeste 29 Nordeste 0.4 -- -- 95
2020-03-31 22:00:00 8.9 6 Norte 23 Nordeste 2 -- -- 94
2020-03-31 21:00:00 8.9 10 Norte 28 Norte 3.8 -- -- 93
2020-03-31 20:00:00 8.9 3 Sudoeste 14 Noroeste 2.6 -- -- 94
2020-03-31 19:00:00 9.1 2 Nordeste 16 Norte 2.8 -- -- 93
2020-03-31 18:00:00 9.4 5 Nordeste 14 Este 5.8 -- -- 93
2020-03-31 17:00:00 9.3 4 Nordeste 13 Noroeste 6.6 -- -- 94
2020-03-31 16:00:00 9.3 3 Noroeste 8 Nordeste 3.4 -- -- 95
2020-03-31 15:00:00 8.7 6 Norte 15 Nordeste 7.4 -- -- 94
2020-03-31 14:00:00 8.4 2 Oeste 12 Nordeste 4.4 -- -- 95
2020-03-31 13:00:00 8 0 Calma 7 Sur 5.6 -- -- 98
2020-03-31 12:00:00 7.5 2 Sudoeste 6 Sudoeste 5.8 -- -- 98
2020-03-31 11:00:00 7.2 2 Sudeste 7 Sudoeste 5.8 -- -- 98
2020-03-31 10:00:00 6.7 3 Sudoeste 7 Oeste 5.6 -- -- 98
2020-03-31 09:00:00 5.9 3 Sudoeste 6 Sudoeste 3.8 -- -- 98
2020-03-31 08:00:00 5.3 0 Calma 6 Sudoeste 3.6 -- -- 98
2020-03-31 07:00:00 4.4 0 Calma 6 Sudoeste 1.4 -- -- 98
2020-03-31 06:00:00 3.9 0 Calma 4 Sudoeste 1.8 -- -- 97
2020-03-31 05:00:00 3.8 0 Calma 5 Sur 1.8 -- -- 96
2020-03-31 04:00:00 3.7 2 Sur 4 Sudeste 2 -- -- 96
2020-03-31 03:00:00 3.8 0 Calma 6 Nordeste 1.6 -- -- 95
2020-03-31 02:00:00 3.6 3 Nordeste 5 Nordeste 1.2 -- -- 94
2020-03-31 01:00:00 3.7 4 Nordeste 11 Norte 0.4 -- -- 92
2020-03-31 00:00:00 3.4 4 Nordeste 13 Nordeste 0.6 -- -- 92
2020-03-30 23:00:00 3.6 5 Este 13 Nordeste 1 -- -- 92
2020-03-30 22:00:00 4 6 Nordeste 12 Norte 1 -- -- 89
2020-03-30 21:00:00 4.3 8 Este 14 Norte 1.4 -- -- 88
2020-03-30 20:00:00 5.3 6 Norte 22 Norte 0.2 -- -- 79
2020-03-30 19:00:00 6.2 12 Norte 25 Norte 0 -- -- 66
2020-03-30 18:00:00 6.1 8 Norte 14 Nordeste 0 -- -- 72
2020-03-30 17:00:00 5.6 10 Nordeste 19 Nordeste 0 -- -- 74
2020-03-30 16:00:00 6.3 5 Nordeste 15 Este 0.2 -- -- 74
2020-03-30 15:00:00 5.8 8 Nordeste 18 Nordeste 0 -- -- 82
2020-03-30 14:00:00 5.2 9 Norte 27 Norte 1.2 -- -- 85
2020-03-30 13:00:00 6.4 10 Nordeste 28 Norte 0 -- -- 73
2020-03-30 12:00:00 6.8 12 Nordeste 23 Norte 0 -- -- 72
2020-03-30 11:00:00 7.8 7 Nordeste 16 Nordeste 0 -- -- 64
2020-03-30 10:00:00 8.2 9 Nordeste 20 Nordeste 0 -- -- 65
2020-03-30 09:00:00 8.4 9 Nordeste 27 Noroeste 0 -- -- 67
2020-03-30 08:00:00 8.9 12 Nordeste 28 Nordeste 0 -- -- 66
2020-03-30 07:00:00 9.3 7 Este 30 Norte 0 -- -- 62
2020-03-30 06:00:00 9.8 10 Norte 28 Noroeste 0 -- -- 58
2020-03-30 05:00:00 10.2 10 Nordeste 27 Nordeste 0 -- -- 57
2020-03-30 04:00:00 10 5 Sudeste 21 Este 0 -- -- 58
2020-03-30 03:00:00 11 8 Este 18 Este 0 -- -- 54
2020-03-30 02:00:00 11.1 6 Este 14 Este 0 -- -- 56
2020-03-30 01:00:00 11.3 4 Este 19 Este 0 -- -- 55
2020-03-30 00:00:00 10.7 6 Nordeste 15 Nordeste 0 -- -- 60
2020-03-29 23:00:00 9.4 3 Sur 9 Nordeste 0 -- -- 81
2020-03-29 22:00:00 10.1 3 Oeste 8 Norte 0 -- -- 79
2020-03-29 21:00:00 12 8 Norte 13 Norte 0 -- -- 70
2020-03-29 20:00:00 14.8 6 Sudoeste 12 Sudoeste 0 -- -- 58
2020-03-29 19:00:00 16.7 6 Sur 13 Sudoeste 0 -- -- 52
2020-03-29 18:00:00 18 8 Sudoeste 20 Sur 0 -- -- 43
2020-03-29 17:00:00 18.6 13 Sur 26 Sur 0 -- -- 42
2020-03-29 16:00:00 19.8 14 Sur 28 Sur 0 -- -- 42
2020-03-29 15:00:00 19.6 15 Sur 27 Sur 0 -- -- 42
2020-03-29 14:00:00 19.7 12 Sur 25 Sur 0 -- -- 40
2020-03-29 13:00:00 19.6 12 Sudeste 21 Sur 0 -- -- 41
2020-03-29 12:00:00 18.7 10 Sudeste 17 Sudeste 0 -- -- 44
2020-03-29 11:00:00 14.7 2 Sudeste 7 Sudoeste 0 -- -- 54
2020-03-29 10:00:00 10.4 3 Sudoeste 5 Sur 0 -- -- 69
2020-03-29 09:00:00 5.5 0 Calma 8 Norte 0 -- -- 92
2020-03-29 08:00:00 3.2 0 Calma 13 Norte 0 -- -- 91
2020-03-29 07:00:00 2.7 0 Calma 5 Norte 0 -- -- 94
2020-03-29 06:00:00 2.7 0 Calma 2 Oeste 0 -- -- 94
2020-03-29 05:00:00 2.9 0 Calma 3 Oeste 0 -- -- 93
2020-03-29 03:00:00 3.5 2 Oeste 3 Oeste 0 -- -- 92
2020-03-29 01:00:00 4.1 0 Calma 6 Norte 0 -- -- 90
2020-03-29 00:00:00 4.8 0 Calma 4 Norte 0 -- -- 90
2020-03-28 23:00:00 5.5 0 Calma 3 Noroeste 0 -- -- 88
2020-03-28 22:00:00 6.6 0 Calma 5 Norte 0 -- -- 83
2020-03-28 21:00:00 7.8 0 Calma 7 Noroeste 0 -- -- 78
2020-03-28 20:00:00 9.8 6 Norte 9 Norte 0 -- -- 72
2020-03-28 19:00:00 12.4 6 Sudoeste 17 Sur 0 -- -- 61
2020-03-28 18:00:00 14.4 11 Sur 22 Sudeste 0 -- -- 55
2020-03-28 17:00:00 16 9 Sudeste 15 Sudeste 0 -- -- 49
2020-03-28 16:00:00 14.8 6 Nordeste 14 Este 0 -- -- 47
2020-03-28 15:00:00 15.1 5 Sur 15 Este 0 -- -- 48
2020-03-28 14:00:00 14.8 7 Sudeste 17 Sudeste 0 -- -- 49
2020-03-28 13:00:00 13.3 4 Nordeste 14 Nordeste 0 -- -- 52
2020-03-28 12:00:00 12.7 5 Este 17 Este 0 -- -- 54
2020-03-28 11:00:00 12.3 4 Este 13 Norte 0 -- -- 58
2020-03-28 10:00:00 9.2 5 Sudeste 13 Sudeste 0 -- -- 73
2020-03-28 09:00:00 7.4 0 Calma 6 Noroeste 0 -- -- 83
2020-03-28 08:00:00 5.7 0 Calma 8 Sur 0 -- -- 89
2020-03-28 07:00:00 4.8 3 Oeste 6 Oeste 0 -- -- 85
2020-03-28 06:00:00 4.1 3 Oeste 5 Oeste 0 -- -- 94
2020-03-28 05:00:00 3.7 3 Sur 4 Sudoeste 0 -- -- 95
2020-03-28 04:00:00 2.8 3 Oeste 4 Oeste 0 -- -- 95
2020-03-28 03:00:00 1.6 0 Calma 2 Oeste 0 -- -- 95
2020-03-28 02:00:00 0.9 0 Calma 3 Oeste 0 -- -- 93
2020-03-28 01:00:00 1.3 0 Calma 2 Sudeste 0 -- -- 92
2020-03-28 00:00:00 2 0 Calma 4 Oeste 0 -- -- 92
2020-03-27 23:00:00 2.6 0 Calma 5 Noroeste 0 -- -- 90
2020-03-27 22:00:00 3.9 0 Calma 8 Norte 0 -- -- 87
2020-03-27 21:00:00 5.1 2 Noroeste 5 Noroeste 0 -- -- 83
2020-03-27 20:00:00 6.9 0 Calma 8 Oeste 0 -- -- 77
2020-03-27 19:00:00 9.2 8 Sudoeste 18 Sur 0 -- -- 65
2020-03-27 18:00:00 11.7 9 Sudeste 20 Sudeste 0 -- -- 52
2020-03-27 17:00:00 12.2 12 Sudeste 21 Sudeste 0 -- -- 51
2020-03-27 16:00:00 13.2 13 Sudeste 26 Sudeste 0 -- -- 43
2020-03-27 15:00:00 13.5 13 Sur 22 Sudeste 0 -- -- 42
2020-03-27 14:00:00 12.4 10 Sudeste 27 Sur 0 -- -- 54
2020-03-27 13:00:00 10.8 4 Este 12 Nordeste 0 -- -- 53
2020-03-27 12:00:00 10.6 0 Calma 18 Nordeste 0 -- -- 58
2020-03-27 11:00:00 9 4 Este 15 Nordeste 0 -- -- 67
2020-03-27 10:00:00 8.6 9 Nordeste 16 Norte 0 -- -- 73
2020-03-27 09:00:00 6.8 0 Calma 5 Sudoeste 0 -- -- 83
2020-03-27 08:00:00 4.9 3 Nordeste 6 Nordeste 0 -- -- 92
2020-03-27 07:00:00 4.4 3 Sudoeste 8 Sur 0 -- -- 92
2020-03-27 06:00:00 4.2 0 Calma 8 Este 0 -- -- 92
2020-03-27 05:00:00 4 3 Noroeste 5 Noroeste 0 -- -- 94
2020-03-27 04:00:00 3.7 4 Sudoeste 8 Sudoeste 0 -- -- 95
2020-03-27 03:00:00 2.7 3 Oeste 5 Norte 0 -- -- 95
2020-03-27 02:00:00 2.9 2 Sur 7 Noroeste 0 -- -- 92
2020-03-27 01:00:00 4 0 Calma 5 Noroeste 0 -- -- 90
2020-03-27 00:00:00 4.5 0 Calma 4 Sudoeste 0 -- -- 90
2020-03-26 23:00:00 4.2 3 Noroeste 8 Norte 0 -- -- 89
2020-03-26 22:00:00 5 0 Calma 16 Nordeste 0 -- -- 84
2020-03-26 21:00:00 5.9 5 Nordeste 19 Este 0 -- -- 82
2020-03-26 20:00:00 7 12 Nordeste 21 Nordeste 0 -- -- 79
2020-03-26 19:00:00 7.8 4 Sudeste 24 Sur 0 -- -- 78
2020-03-26 18:00:00 9.3 14 Sudeste 37 Este 0 -- -- 71
2020-03-26 17:00:00 10.9 12 Norte 35 Norte 0 -- -- 48
2020-03-26 16:00:00 10.4 15 Nordeste 39 Nordeste 0 -- -- 60
2020-03-26 15:00:00 10.6 24 Nordeste 49 Norte 0 -- -- 56
2020-03-26 14:00:00 9.8 33 Norte 58 Norte 0 -- -- 60
2020-03-26 13:00:00 11.4 13 Norte 42 Norte 0 -- -- 52
2020-03-26 12:00:00 11.1 24 Nordeste 59 Norte 0 -- -- 54
2020-03-26 11:00:00 11.3 26 Norte 59 Norte 0 -- -- 53
2020-03-26 10:00:00 11.4 9 Norte 32 Nordeste 0 -- -- 53
2020-03-26 09:00:00 10.1 9 Nordeste 37 Norte 0 -- -- 61
2020-03-26 08:00:00 6.4 13 Norte 26 Norte 0 -- -- 72
2020-03-26 07:00:00 3.2 5 Noroeste 18 Noroeste 0 -- -- 92
2020-03-26 06:00:00 1.2 3 Oeste 6 Oeste 0 -- -- 99
2020-03-26 05:00:00 1.1 0 Calma 7 Norte 0 -- -- 97
2020-03-26 04:00:00 1.6 5 Sudoeste 9 Sur 0 -- -- 97
2020-03-26 03:00:00 2.4 5 Norte 13 Norte 0 -- -- 96
2020-03-26 02:00:00 3.1 0 Calma 6 Sudoeste 0 -- -- 97
2020-03-26 01:00:00 3.2 4 Norte 6 Norte 0 -- -- 96
2020-03-26 00:00:00 4.3 4 Norte 6 Norte 0 -- -- 95
2020-03-25 23:00:00 5.3 3 Norte 12 Sur 0 -- -- 92
2020-03-25 22:00:00 6.5 5 Sur 12 Sur 0 -- -- 88
2020-03-25 21:00:00 6.6 3 Sur 10 Sur 0 -- -- 87
2020-03-25 20:00:00 6.9 5 Sur 9 Sudeste 0 -- -- 89
2020-03-25 19:00:00 7.5 5 Sur 9 Sur 0 -- -- 85
2020-03-25 18:00:00 7.6 6 Sur 12 Sudeste 0 -- -- 83
2020-03-25 17:00:00 7.8 9 Sudeste 18 Sudeste 0.2 -- -- 83
2020-03-25 16:00:00 9 4 Sudeste 10 Sudeste 0 -- -- 78
2020-03-25 15:00:00 8.1 0 Calma 7 Oeste 0 -- -- 81
2020-03-25 14:00:00 6.2 2 Norte 12 Nordeste 0.2 -- -- 89
2020-03-25 13:00:00 5.4 8 Nordeste 16 Nordeste 1 -- -- 94
2020-03-25 12:00:00 5.9 3 Nordeste 9 Este 0.8 -- -- 94
2020-03-25 11:00:00 6.3 0 Calma 7 Este 0.4 -- -- 93
2020-03-25 10:00:00 6.5 3 Nordeste 12 Este 0.8 -- -- 93
2020-03-25 09:00:00 6.7 0 Calma 3 Nordeste 0.4 -- -- 96
2020-03-25 08:00:00 6.4 0 Calma 5 Noroeste 0 -- -- 96
2020-03-25 07:00:00 6.4 2 Oeste 6 Norte 0 -- -- 96
2020-03-25 06:00:00 6.5 3 Norte 10 Norte 0 -- -- 94
2020-03-25 05:00:00 6.6 3 Norte 6 Noroeste 0.2 -- -- 96
2020-03-25 04:00:00 6.8 4 Noroeste 9 Norte 1 -- -- 94
2020-03-25 03:00:00 7.1 5 Norte 10 Norte 0.6 -- -- 96
2020-03-25 02:00:00 7.3 0 Calma 8 Este 1 -- -- 96
2020-03-25 01:00:00 7.6 2 Nordeste 8 Norte 0 -- -- 94
2020-03-25 00:00:00 7.7 4 Noroeste 5 Noroeste 0.2 -- -- 95
2020-03-24 23:00:00 7.8 3 Norte 8 Norte 0 -- -- 93
2020-03-24 22:00:00 8 5 Norte 9 Norte 0 -- -- 93
2020-03-24 21:00:00 8.2 4 Norte 8 Nordeste 0 -- -- 93
2020-03-24 20:00:00 8.4 5 Norte 9 Norte 0 -- -- 93
2020-03-24 19:00:00 8.6 2 Nordeste 14 Nordeste 1 -- -- 94
2020-03-24 18:00:00 9.1 10 Nordeste 18 Nordeste 0 -- -- 89
2020-03-24 17:00:00 9.1 8 Nordeste 21 Nordeste 0 -- -- 89
2020-03-24 16:00:00 9.7 13 Nordeste 24 Nordeste 0 -- -- 84
2020-03-24 15:00:00 9.9 10 Nordeste 21 Nordeste 0 -- -- 82
2020-03-24 14:00:00 9.5 9 Nordeste 22 Norte 0 -- -- 90
2020-03-24 13:00:00 9.4 10 Nordeste 27 Nordeste 0 -- -- 88
2020-03-24 12:00:00 9.6 15 Nordeste 27 Nordeste 0.2 -- -- 86
2020-03-24 11:00:00 9 14 Nordeste 27 Nordeste 0 -- -- 91
2020-03-24 10:00:00 9.1 15 Nordeste 30 Nordeste 0 -- -- 89
2020-03-24 09:00:00 9.2 12 Nordeste 24 Este 0.8 -- -- 91
2020-03-24 08:00:00 9.5 12 Nordeste 23 Nordeste 0 -- -- 93
2020-03-24 07:00:00 9.6 11 Nordeste 22 Nordeste 0.2 -- -- 92
2020-03-24 06:00:00 9.7 6 Este 20 Nordeste 0.6 -- -- 94
2020-03-24 05:00:00 10.1 6 Este 24 Este 0.2 -- -- 93
2020-03-24 04:00:00 10 4 Nordeste 10 Norte 1.2 -- -- 96
2020-03-24 03:00:00 10 5 Norte 17 Nordeste 0.2 -- -- 94
2020-03-24 02:00:00 10.1 3 Nordeste 12 Nordeste 0 -- -- 94
2020-03-24 01:00:00 10.2 4 Norte 11 Este 0.2 -- -- 94
2020-03-24 00:00:00 10.4 7 Este 19 Este 0 -- -- 91
2020-03-23 23:00:00 10.4 3 Este 10 Este 0 -- -- 95
2020-03-23 22:00:00 10.5 5 Este 18 Este 0.2 -- -- 95
2020-03-23 21:00:00 10.6 7 Este 16 Este 2.6 -- -- 97
2020-03-23 20:00:00 10.5 2 Sur 7 Sudoeste 1.8 -- -- 97
2020-03-23 19:00:00 10.7 0 Calma 8 Sur 1 -- -- 96
2020-03-23 18:00:00 10.6 0 Calma 8 Nordeste 3.2 -- -- 95
2020-03-23 17:00:00 10.5 3 Nordeste 6 Nordeste 3.8 -- -- 95
2020-03-23 16:00:00 10.8 4 Oeste 8 Oeste 9 -- -- 94
2020-03-23 15:00:00 11.6 5 Nordeste 13 Norte 0.8 -- -- 86
2020-03-23 14:00:00 11.9 8 Nordeste 19 Este 0 -- -- 86
2020-03-23 13:00:00 12.5 7 Nordeste 14 Nordeste 0 -- -- 84
2020-03-23 12:00:00 12.9 4 Nordeste 11 Nordeste 0 -- -- 78
2020-03-23 11:00:00 11.2 5 Nordeste 9 Nordeste 0.8 -- -- 93
2020-03-23 10:00:00 10.7 3 Nordeste 5 Nordeste 0.2 -- -- 94
2020-03-23 09:00:00 10.2 0 Calma 9 Nordeste 0 -- -- 95
2020-03-23 08:00:00 9.9 6 Nordeste 12 Nordeste 0.2 -- -- 95
2020-03-23 07:00:00 9.4 2 Noroeste 4 Oeste 0 -- -- 97
2020-03-23 06:00:00 9.5 0 Calma 2 Sudoeste 0 -- -- 97
2020-03-23 05:00:00 9.5 0 Calma 5 Noroeste 0 -- -- 96
2020-03-23 04:00:00 9.6 3 Noroeste 5 Noroeste 1 -- -- 96
2020-03-23 03:00:00 9.8 0 Calma 5 Norte 0 -- -- 94
2020-03-23 02:00:00 9.8 3 Nordeste 6 Nordeste 0.2 -- -- 94
2020-03-23 01:00:00 9.8 0 Calma 5 Sudoeste 0.2 -- -- 95
2020-03-23 00:00:00 9.9 0 Calma 3 Sur 0 -- -- 94
2020-03-22 23:00:00 9.9 3 Noroeste 6 Norte 0 -- -- 90
2020-03-22 22:00:00 10.1 0 Calma 9 Nordeste 0 -- -- 89
2020-03-22 21:00:00 10.1 4 Norte 9 Nordeste 0 -- -- 89
2020-03-22 20:00:00 10.4 6 Este 14 Nordeste 0 -- -- 87
2020-03-22 19:00:00 11 0 Calma 9 Nordeste 0 -- -- 88
2020-03-22 18:00:00 11.7 9 Este 17 Este 0 -- -- 84
2020-03-22 17:00:00 11.7 5 Sudoeste 9 Sudoeste 0.4 -- -- 85
2020-03-22 16:00:00 12.7 3 Sudoeste 7 Sudoeste 0 -- -- 79
2020-03-22 15:00:00 12.2 0 Calma 13 Nordeste 0.6 -- -- 83
2020-03-22 14:00:00 11.7 5 Este 13 Nordeste 0 -- -- 81
2020-03-22 13:00:00 11.3 4 Este 9 Este 0 -- -- 85
2020-03-22 12:00:00 10 3 Sur 5 Sudoeste 0 -- -- 93
2020-03-22 11:00:00 9.6 2 Este 9 Este 0 -- -- 93
2020-03-22 10:00:00 9.5 5 Nordeste 8 Nordeste 0 -- -- 93
2020-03-22 09:00:00 9.1 3 Norte 6 Norte 0.8 -- -- 96
2020-03-22 08:00:00 9.1 0 Calma 2 Este 1.4 -- -- 97
2020-03-22 07:00:00 9 0 Calma 0 Calma 0.2 -- -- 96
2020-03-22 06:00:00 9.1 2 Sur 3 Sur 0.2 -- -- 96
2020-03-22 05:00:00 9.3 0 Calma 4 Oeste 0.2 -- -- 97
2020-03-22 04:00:00 9.3 0 Calma 5 Sudeste 0 -- -- 96
2020-03-22 03:00:00 9.6 0 Calma 3 Norte 0 -- -- 96
2020-03-22 02:00:00 9.7 0 Calma 4 Norte 0 -- -- 95
2020-03-22 01:00:00 9.7 0 Calma 2 Noroeste 0 -- -- 95
2020-03-22 00:00:00 9.6 0 Calma 6 Sur 0 -- -- 95
2020-03-21 23:00:00 9.7 3 Norte 4 Norte 0 -- -- 94
2020-03-21 22:00:00 9.6 2 Oeste 4 Oeste 0.2 -- -- 94
2020-03-21 21:00:00 10.2 0 Calma 3 Sudeste 0 -- -- 92
2020-03-21 20:00:00 10.5 0 Calma 5 Sudeste 0 -- -- 89
2020-03-21 19:00:00 10.7 4 Sur 10 Sudeste 0 -- -- 87
2020-03-21 18:00:00 10.9 5 Sudeste 11 Sudeste 0 -- -- 83
2020-03-21 17:00:00 11.4 6 Sudeste 12 Sudeste 0 -- -- 80
2020-03-21 16:00:00 11.8 6 Sudeste 17 Sudeste 0 -- -- 75
2020-03-21 15:00:00 12.5 9 Sudeste 18 Sudeste 0 -- -- 75
2020-03-21 14:00:00 13.2 10 Sudeste 15 Sudeste 0 -- -- 73
2020-03-21 13:00:00 13.2 4 Este 9 Este 0 -- -- 68
2020-03-21 12:00:00 12.6 2 Oeste 6 Sur 0 -- -- 69
2020-03-21 11:00:00 10.8 2 Sur 5 Oeste 0 -- -- 77
2020-03-21 10:00:00 8.5 2 Sudoeste 4 Sudoeste 0 -- -- 86
2020-03-21 09:00:00 6.6 0 Calma 4 Sudoeste 0 -- -- 96
2020-03-21 08:00:00 4.2 2 Sudoeste 4 Norte 0 -- -- 98
2020-03-21 07:00:00 3.5 0 Calma 2 Norte 0 -- -- 97
2020-03-21 06:00:00 3.8 0 Calma 2 Oeste 0 -- -- 96
2020-03-21 05:00:00 4.4 0 Calma 3 Sudeste 0 -- -- 95
2020-03-21 04:00:00 5 0 Calma 2 Sudeste 0 -- -- 94
2020-03-21 03:00:00 6.1 0 Calma 3 Noroeste 0 -- -- 93
2020-03-21 02:00:00 6.7 2 Sur 5 Norte 0 -- -- 95
2020-03-21 01:00:00 6.3 0 Calma -- -- 0 -- -- 93
2020-03-21 00:00:00 7.2 3 Oeste 8 Noroeste 0 -- -- 91
2020-03-20 23:00:00 8.1 7 Noroeste 9 Noroeste 0 -- -- 89
2020-03-20 22:00:00 9.2 3 Nordeste 11 Nordeste 0 -- -- 87
2020-03-20 21:00:00 10.4 8 Nordeste 14 Este 0 -- -- 84
2020-03-20 20:00:00 11.1 0 Calma 10 Sudeste 0 -- -- 85
2020-03-20 19:00:00 11.4 6 Sudeste 13 Sudeste 0 -- -- 82
2020-03-20 18:00:00 11.9 7 Sudeste 19 Sudeste 0 -- -- 80
2020-03-20 17:00:00 13 12 Sudeste 19 Sudeste 0 -- -- 74
2020-03-20 16:00:00 13.9 10 Sudeste 22 Sudeste 0 -- -- 69
2020-03-20 15:00:00 13.4 9 Sudeste 25 Este 0 -- -- 72
2020-03-20 14:00:00 13.9 13 Sudeste 22 Sudeste 0 -- -- 73
2020-03-20 13:00:00 12.7 7 Este 14 Este 0 -- -- 74
2020-03-20 12:00:00 12.4 6 Sudeste 12 Este 0 -- -- 77
2020-03-20 11:00:00 12.1 5 Sudeste 9 Sudeste 0 -- -- 73
2020-03-20 10:00:00 10.3 3 Este 5 Sudeste 0 -- -- 82
2020-03-20 09:00:00 8.4 0 Calma 3 Oeste 0 -- -- 92
2020-03-20 08:00:00 7.4 2 Oeste 4 Sudoeste 0 -- -- 96
2020-03-20 07:00:00 7 2 Oeste 4 Sudoeste 0 -- -- 96
2020-03-20 06:00:00 7 0 Calma 3 Sudeste 0 -- -- 95
2020-03-20 05:00:00 7.1 0 Calma 4 Sur 0 -- -- 96
2020-03-20 04:00:00 7 0 Calma 3 Sudeste 0 -- -- 96
2020-03-20 03:00:00 6.5 0 Calma 3 Sudeste 0 -- -- 96
2020-03-20 02:00:00 6.1 0 Calma 5 Noroeste 0 -- -- 94
2020-03-20 01:00:00 6.8 0 Calma 5 Oeste 0 -- -- 92
2020-03-20 00:00:00 8.1 3 Oeste 7 Nordeste 0 -- -- 90
2020-03-19 23:00:00 9.5 0 Calma 6 Este 0 -- -- 88
2020-03-19 22:00:00 10.3 2 Este 8 Sudeste 0 -- -- 89
2020-03-19 21:00:00 10.7 0 Calma 8 Sudeste 0 -- -- 87
2020-03-19 20:00:00 10.9 0 Calma 18 Sudeste 0 -- -- 87
2020-03-19 19:00:00 11.7 9 Sudeste 21 Sudeste 0 -- -- 85
2020-03-19 18:00:00 12.7 14 Sudeste 24 Sudeste 0 -- -- 82
2020-03-19 17:00:00 14.1 15 Sudeste 26 Sudeste 0 -- -- 77
2020-03-19 16:00:00 15.9 13 Sudeste 21 Sudeste 0 -- -- 66
2020-03-19 15:00:00 16.3 10 Sudeste 19 Sudeste 0 -- -- 62
2020-03-19 14:00:00 16.7 8 Sudeste 17 Sur 0 -- -- 59
2020-03-19 13:00:00 16.4 7 Sudeste 21 Sudeste 0 -- -- 59
2020-03-19 12:00:00 15.6 8 Sudeste 17 Sudeste 0 -- -- 65
2020-03-19 11:00:00 14.4 4 Sudeste 8 Sudeste 0 -- -- 61
2020-03-19 10:00:00 11.1 2 Sudeste 4 Sudeste 0 -- -- 66
2020-03-19 09:00:00 7.4 0 Calma 2 Sudoeste 0 -- -- 91
2020-03-19 08:00:00 4.4 0 Calma 0 Calma 0 -- -- 97
2020-03-19 07:00:00 4.1 0 Calma 3 Noroeste 0 -- -- 94
2020-03-19 06:00:00 4.9 0 Calma 0 Calma 0 -- -- 94
2020-03-19 05:00:00 5.6 0 Calma 3 Norte 0 -- -- 93
2020-03-19 04:00:00 6.3 0 Calma 2 Sudoeste 0 -- -- 94
2020-03-19 03:00:00 6.7 0 Calma 3 Sudoeste 0 -- -- 94
2020-03-19 02:00:00 6.7 0 Calma -- -- 0 -- -- 94
2020-03-19 01:00:00 6.7 0 Calma 4 Norte 0 -- -- 94
2020-03-19 00:00:00 6.9 0 Calma 3 Sudeste 0 -- -- 93
2020-03-18 23:00:00 7.4 0 Calma 3 Sur 0 -- -- 91
2020-03-18 22:00:00 8.1 0 Calma 4 Norte 0 -- -- 88
2020-03-18 21:00:00 9.1 0 Calma 8 Norte 0 -- -- 85
2020-03-18 20:00:00 10.8 0 Calma 7 Noroeste 0 -- -- 81
2020-03-18 19:00:00 12.7 5 Este 12 Nordeste 0 -- -- 67
2020-03-18 18:00:00 14.1 7 Nordeste 16 Nordeste 0 -- -- 63
2020-03-18 17:00:00 14.7 12 Nordeste 19 Nordeste 0 -- -- 58
2020-03-18 16:00:00 15 12 Nordeste 21 Nordeste 0 -- -- 55
2020-03-18 15:00:00 15 12 Nordeste 21 Nordeste 0 -- -- 55
2020-03-18 14:00:00 14.8 10 Nordeste 18 Nordeste 0 -- -- 62
2020-03-18 13:00:00 14.4 13 Nordeste 21 Nordeste 0 -- -- 62
2020-03-18 12:00:00 13.8 11 Este 22 Este 0 -- -- 67
2020-03-18 11:00:00 11.8 0 Calma 5 Sudoeste 0 -- -- 84
2020-03-18 10:00:00 10 0 Calma 4 Oeste 0 -- -- 91
2020-03-18 09:00:00 8.1 0 Calma 2 Sur 0 -- -- 99
2020-03-18 08:00:00 6.2 0 Calma 3 Sudoeste 0 -- -- 98
2020-03-18 07:00:00 6.1 0 Calma 3 Noroeste 0 -- -- 97
2020-03-18 06:00:00 6.3 0 Calma 4 Norte 0 -- -- 96
2020-03-18 05:00:00 6.9 0 Calma 2 Norte 0.2 -- -- 97
2020-03-18 04:00:00 7.3 0 Calma 3 Oeste 0 -- -- 96
2020-03-18 03:00:00 7.5 0 Calma 3 Oeste 0 -- -- 96
2020-03-18 02:00:00 7.9 0 Calma 3 Oeste 0 -- -- 95
2020-03-18 01:00:00 8.2 0 Calma 2 Sudeste 0 -- -- 93
2020-03-18 00:00:00 9.1 0 Calma 10 Nordeste 0 -- -- 90
2020-03-17 23:00:00 10.6 8 Nordeste 14 Nordeste 0 -- -- 83
2020-03-17 22:00:00 10.5 6 Este 22 Norte 0 -- -- 88
2020-03-17 21:00:00 11.4 9 Nordeste 21 Nordeste 0 -- -- 84
2020-03-17 20:00:00 12 11 Nordeste 19 Nordeste 0 -- -- 84
2020-03-17 19:00:00 12.4 10 Nordeste 28 Nordeste 0 -- -- 85
2020-03-17 18:00:00 12.5 14 Nordeste 28 Nordeste 0 -- -- 87
2020-03-17 17:00:00 12.6 15 Nordeste 27 Nordeste 0 -- -- 88
2020-03-17 16:00:00 12.5 11 Nordeste 26 Nordeste 0 -- -- 91
2020-03-17 15:00:00 12.2 17 Nordeste 30 Nordeste 0 -- -- 93
2020-03-17 14:00:00 12.1 13 Nordeste 33 Nordeste 0 -- -- 96
2020-03-17 13:00:00 12.4 9 Nordeste 21 Nordeste 0 -- -- 96
2020-03-17 12:00:00 12.2 8 Este 17 Nordeste 4.6 -- -- 97
2020-03-17 11:00:00 12.2 3 Norte 16 Este 7.8 -- -- 96
2020-03-17 10:00:00 12.3 9 Este 25 Este 2.4 -- -- 95
2020-03-17 09:00:00 12.4 11 Este 32 Este 1.4 -- -- 96
2020-03-17 08:00:00 12.4 12 Este 26 Este 1.6 -- -- 97
2020-03-17 07:00:00 11.9 6 Nordeste 15 Este 6 -- -- 98
2020-03-17 06:00:00 11.7 0 Calma 10 Nordeste 3.6 -- -- 98
2020-03-17 05:00:00 11.5 4 Norte 6 Norte 6.6 -- -- 98
2020-03-17 04:00:00 11.6 2 Nordeste 27 Sudeste 5.8 -- -- 97
2020-03-17 03:00:00 12.5 14 Sudeste 35 Sudeste 2.2 -- -- 97
2020-03-17 02:00:00 12.7 15 Este 35 Sudeste 0.6 -- -- 95
2020-03-17 01:00:00 12.8 15 Este 26 Este 2 -- -- 95
2020-03-17 00:00:00 12.9 14 Este 21 Este 0 -- -- 95
2020-03-16 23:00:00 12.8 12 Este 22 Sudeste 0 -- -- 96
2020-03-16 22:00:00 12.7 11 Este 26 Este 0.2 -- -- 96
2020-03-16 21:00:00 12.7 15 Este 27 Este 0.4 -- -- 97
2020-03-16 20:00:00 12.7 13 Este 32 Sudeste 0.4 -- -- 97
2020-03-16 19:00:00 12.5 17 Sudeste 32 Sudeste 2.6 -- -- 98
2020-03-16 18:00:00 11.9 4 Sudeste 22 Este 0.6 -- -- 98
2020-03-16 17:00:00 11.6 6 Este 26 Sudeste 0.4 -- -- 96
2020-03-16 16:00:00 11.3 7 Este 17 Sudeste 2.2 -- -- 97
2020-03-16 15:00:00 11 0 Calma 12 Oeste 4.2 -- -- 95
2020-03-16 14:00:00 11.1 0 Calma 8 Oeste 0.6 -- -- 93
2020-03-16 13:00:00 10.6 5 Noroeste 9 Noroeste 1 -- -- 95
2020-03-16 12:00:00 10.5 5 Norte 8 Norte 0.6 -- -- 91
2020-03-16 11:00:00 10.6 3 Norte 12 Norte 0 -- -- 91
2020-03-16 10:00:00 10.5 4 Nordeste 23 Sudeste 0 -- -- 91
2020-03-16 09:00:00 10.3 12 Sudeste 31 Sudeste 4.8 -- -- 95
2020-03-16 08:00:00 10.1 3 Nordeste 6 Nordeste 3.2 -- -- 96
2020-03-16 07:00:00 10.4 0 Calma 7 Norte 0.8 -- -- 95
2020-03-16 06:00:00 10.4 3 Noroeste 4 Noroeste 0.2 -- -- 94
2020-03-16 05:00:00 10.5 0 Calma 4 Sur 0 -- -- 93
2020-03-16 04:00:00 10.6 0 Calma 7 Noroeste 0.4 -- -- 92
2020-03-16 03:00:00 10.8 3 Norte 4 Norte 0.4 -- -- 91
2020-03-16 02:00:00 10.9 2 Sudoeste 3 Sudoeste 0 -- -- 78
2020-03-16 01:00:00 11.1 0 Calma 5 Sudoeste 0 -- -- 76
2020-03-16 00:00:00 11.7 2 Sur 12 Sudoeste 0 -- -- 74
2020-03-15 23:00:00 12 5 Sudoeste 19 Oeste 0 -- -- 71
2020-03-15 22:00:00 11.7 5 Sudoeste 9 Sur 0 -- -- 82
2020-03-15 21:00:00 11.6 5 Sudoeste 16 Sur 0 -- -- 83
2020-03-15 20:00:00 12.1 10 Sur 17 Sudoeste 0 -- -- 83
2020-03-15 19:00:00 12.8 8 Sur 20 Sur 0 -- -- 74
2020-03-15 18:00:00 13.8 11 Sur 26 Sur 0 -- -- 71
2020-03-15 17:00:00 15.4 13 Sudoeste 26 Sur 0 -- -- 63
2020-03-15 16:00:00 17.2 17 Sur 30 Sur 0 -- -- 64
2020-03-15 15:00:00 17.8 19 Sur 30 Sudoeste 0 -- -- 64
2020-03-15 14:00:00 18.7 18 Sur 30 Sur 0 -- -- 59
2020-03-15 13:00:00 17.6 15 Sur 24 Sur 0 -- -- 61
2020-03-15 12:00:00 17.1 15 Sur 24 Sudeste 0 -- -- 64
2020-03-15 11:00:00 13.9 3 Sudoeste 13 Sur 0 -- -- 76
2020-03-15 10:00:00 10.6 3 Este 5 Sudeste 0 -- -- 85
2020-03-15 09:00:00 7.5 0 Calma 3 Este 0 -- -- 96
2020-03-15 08:00:00 5.3 0 Calma 2 Oeste 0 -- -- 97
2020-03-15 07:00:00 4.5 0 Calma 5 Noroeste 0 -- -- 93
2020-03-15 06:00:00 4.8 2 Noroeste 3 Sur 0 -- -- 94
2020-03-15 05:00:00 5.2 0 Calma 3 Noroeste 0 -- -- 93
2020-03-15 04:00:00 5.7 2 Oeste 3 Norte 0 -- -- 95
2020-03-15 03:00:00 6.2 0 Calma 3 Norte 0 -- -- 92
2020-03-15 02:00:00 6.6 0 Calma 3 Oeste 0 -- -- 90
2020-03-15 01:00:00 7 0 Calma 2 Sur 0 -- -- 90
2020-03-15 00:00:00 7.6 0 Calma 2 Oeste 0 -- -- 88
2020-03-14 23:00:00 8.5 0 Calma 4 Norte 0 -- -- 85
2020-03-14 22:00:00 9.5 0 Calma 3 Sur 0 -- -- 83
2020-03-14 21:00:00 10.9 0 Calma 5 Noroeste 0 -- -- 79
2020-03-14 20:00:00 12.4 5 Noroeste 9 Norte 0 -- -- 76
2020-03-14 19:00:00 14.6 0 Calma 11 Sudoeste 0 -- -- 69
2020-03-14 18:00:00 16 6 Sudoeste 16 Sur 0 -- -- 66
2020-03-14 17:00:00 17.9 11 Sur 20 Sur 0 -- -- 60
2020-03-14 16:00:00 19 11 Sur 22 Sur 0 -- -- 56
2020-03-14 15:00:00 20.5 13 Sur 25 Sur 0 -- -- 50
2020-03-14 14:00:00 20.5 12 Sur 19 Sur 0 -- -- 49
2020-03-14 13:00:00 19.3 9 Sur 17 Sudeste 0 -- -- 54
2020-03-14 12:00:00 18.2 6 Sudeste 18 Sudeste 0 -- -- 57
2020-03-14 11:00:00 17.4 9 Sur 16 Sudeste 0 -- -- 58
2020-03-14 10:00:00 13.9 2 Sur 5 Sudeste 0 -- -- 70
2020-03-14 09:00:00 10.7 2 Sur 4 Oeste 0 -- -- 83
2020-03-14 08:00:00 6.9 4 Oeste 6 Oeste 0 -- -- 96
2020-03-14 07:00:00 6.3 4 Norte 6 Norte 0 -- -- 93
2020-03-14 06:00:00 6.8 0 Calma 5 Norte 0 -- -- 91
2020-03-14 05:00:00 7.5 0 Calma 2 Sur 0 -- -- 88
2020-03-14 04:00:00 8.2 0 Calma 4 Oeste 0 -- -- 89
2020-03-14 03:00:00 8.7 0 Calma 5 Nordeste 0 -- -- 87
2020-03-14 02:00:00 8.8 0 Calma 3 Norte 0 -- -- 85
2020-03-14 01:00:00 9.3 2 Nordeste 3 Nordeste 0 -- -- 81
2020-03-14 00:00:00 10.4 0 Calma 2 Sur 0 -- -- 78
2020-03-13 23:00:00 11.1 0 Calma 4 Noroeste 0 -- -- 76
2020-03-13 22:00:00 11.8 5 Noroeste 7 Noroeste 0 -- -- 72
2020-03-13 21:00:00 12.7 0 Calma 6 Sudeste 0 -- -- 67
2020-03-13 20:00:00 13.2 0 Calma 11 Sudeste 0 -- -- 67
2020-03-13 19:00:00 14 6 Sudeste 11 Sudeste 0 -- -- 68
2020-03-13 18:00:00 14.6 6 Sudeste 15 Sudeste 0 -- -- 66
2020-03-13 17:00:00 14.8 8 Sudeste 22 Sudeste 0 -- -- 68
2020-03-13 16:00:00 15.3 17 Sur 24 Sur 0 -- -- 65
2020-03-13 15:00:00 16.7 13 Sur 22 Sudeste 0 -- -- 60
2020-03-13 14:00:00 17.5 11 Sur 19 Sur 0 -- -- 58
2020-03-13 13:00:00 18.2 9 Sur 21 Sudeste 0 -- -- 56
2020-03-13 12:00:00 18.6 10 Sur 19 Sur 0 -- -- 53
2020-03-13 11:00:00 16.5 7 Sur 15 Sudeste 0 -- -- 64
2020-03-13 10:00:00 14.6 11 Sur 15 Sur 0 -- -- 71
2020-03-13 09:00:00 10 0 Calma 4 Sudeste 0 -- -- 89
2020-03-13 08:00:00 6.9 3 Oeste 6 Noroeste 0 -- -- 93
2020-03-13 07:00:00 6.7 3 Sudeste 5 Oeste 0 -- -- 92
2020-03-13 06:00:00 6.8 3 Oeste 6 Este 0 -- -- 91
2020-03-13 05:00:00 7.8 4 Este 9 Noroeste 0 -- -- 92
2020-03-13 04:00:00 7.5 6 Oeste 8 Oeste 0 -- -- 91
2020-03-13 03:00:00 8.5 0 Calma 5 Oeste 0 -- -- 87
2020-03-13 02:00:00 9 3 Noroeste 5 Norte 0 -- -- 86
2020-03-13 01:00:00 9.9 3 Noroeste 5 Oeste 0 -- -- 85
2020-03-13 00:00:00 10.6 2 Nordeste 7 Este 0 -- -- 82
2020-03-12 23:00:00 11.3 3 Oeste 8 Norte 0 -- -- 79
2020-03-12 22:00:00 12.4 0 Calma 6 Norte 0 -- -- 73
2020-03-12 21:00:00 14.2 5 Norte 9 Norte 0 -- -- 69
2020-03-12 20:00:00 16.5 0 Calma 5 Norte 0 -- -- 64
2020-03-12 19:00:00 19.6 3 Sudeste 10 Sur 0 -- -- 56
2020-03-12 18:00:00 22 8 Sur 14 Sudoeste 0 -- -- 48
2020-03-12 17:00:00 24.2 6 Sur 16 Sur 0 -- -- 44
2020-03-12 16:00:00 24.7 10 Sudeste 21 Sudeste 0 -- -- 40
2020-03-12 15:00:00 25.7 10 Sur 18 Sudeste 0 -- -- 44
2020-03-12 14:00:00 24.9 9 Sudeste 15 Sudeste 0 -- -- 43
2020-03-12 13:00:00 24.5 8 Sudeste 14 Sudeste 0 -- -- 42
2020-03-12 12:00:00 23.1 2 Sudeste 7 Este 0 -- -- 44
2020-03-12 11:00:00 20.8 3 Este 5 Este 0 -- -- 49
2020-03-12 10:00:00 17.7 0 Calma 4 Sudeste 0 -- -- 53
2020-03-12 09:00:00 13.2 0 Calma 4 Sudeste 0 -- -- 70
2020-03-12 08:00:00 8.8 0 Calma 3 Norte 0 -- -- 87
2020-03-12 07:00:00 8.1 0 Calma 2 Oeste 0 -- -- 84
2020-03-12 06:00:00 8.5 0 Calma 4 Sudeste 0 -- -- 82
2020-03-12 05:00:00 8.6 0 Calma 3 Noroeste 0 -- -- 82
2020-03-12 04:00:00 9.1 0 Calma 3 Norte 0 -- -- 80
2020-03-12 03:00:00 9.5 0 Calma 4 Sudoeste 0 -- -- 80
2020-03-12 02:00:00 10.4 0 Calma 5 Norte 0 -- -- 74
2020-03-12 01:00:00 9.9 2 Oeste 5 Oeste 0 -- -- 76
2020-03-12 00:00:00 10.8 0 Calma 4 Oeste 0 -- -- 73
2020-03-11 23:00:00 11.5 0 Calma 3 Norte 0 -- -- 71
2020-03-11 22:00:00 12.5 0 Calma 5 Noroeste 0 -- -- 67
2020-03-11 21:00:00 14.1 2 Oeste 8 Norte 0 -- -- 62
2020-03-11 20:00:00 16.3 5 Norte 10 Norte 0 -- -- 55
2020-03-11 19:00:00 19.5 4 Norte 11 Sur 0 -- -- 48
2020-03-11 18:00:00 21.8 11 Sur 20 Sur 0 -- -- 41
2020-03-11 17:00:00 23.6 14 Sur 22 Sur 0 -- -- 37
2020-03-11 16:00:00 24.9 15 Sur 23 Sudoeste 0 -- -- 35
2020-03-11 15:00:00 25.1 17 Sudoeste 29 Sur 0 -- -- 35
2020-03-11 14:00:00 26 15 Sur 25 Sur 0 -- -- 32
2020-03-11 13:00:00 26.3 13 Sur 21 Sur 0 -- -- 32
2020-03-11 12:00:00 25.3 10 Sur 16 Sur 0 -- -- 35
2020-03-11 11:00:00 23 4 Sudeste 8 Sur 0 -- -- 43
2020-03-11 10:00:00 18.3 3 Sur 5 Sur 0 -- -- 52
2020-03-11 09:00:00 14.1 2 Sudeste 6 Sur 0 -- -- 68
2020-03-11 08:00:00 7.6 2 Oeste 8 Sudoeste 0 -- -- 87
2020-03-11 07:00:00 7.7 2 Nordeste 20 Nordeste 0 -- -- 83
2020-03-11 06:00:00 7.9 4 Sudeste 18 Nordeste 0 -- -- 83
2020-03-11 05:00:00 6.9 6 Oeste 14 Noroeste 0 -- -- 87
2020-03-11 04:00:00 6.7 3 Sudoeste 8 Oeste 0 -- -- 86
2020-03-11 03:00:00 7.4 0 Calma 8 Nordeste 0 -- -- 85
2020-03-11 02:00:00 8.1 2 Oeste 8 Oeste 0 -- -- 83
2020-03-11 01:00:00 8.3 2 Noroeste 10 Norte 0 -- -- 83
2020-03-11 00:00:00 9.1 5 Oeste 13 Norte 0 -- -- 86
2020-03-10 23:00:00 10 5 Norte 8 Norte 0 -- -- 85
2020-03-10 22:00:00 10.5 2 Noroeste 7 Oeste 0 -- -- 85
2020-03-10 21:00:00 10.7 6 Oeste 9 Oeste 0 -- -- 84
2020-03-10 20:00:00 12.4 3 Nordeste 7 Norte 0 -- -- 79
2020-03-10 19:00:00 14.1 3 Nordeste 7 Este 0 -- -- 73
2020-03-10 18:00:00 15.1 4 Nordeste 7 Este 0 -- -- 70
2020-03-10 17:00:00 15.8 5 Este 9 Este 0 -- -- 66
2020-03-10 16:00:00 16.4 2 Este 9 Sudeste 0 -- -- 62
2020-03-10 15:00:00 16.6 5 Este 10 Este 0 -- -- 62
2020-03-10 14:00:00 16.3 4 Este 9 Este 0 -- -- 58
2020-03-10 13:00:00 16 4 Este 10 Este 0 -- -- 58
2020-03-10 12:00:00 15.2 4 Este 10 Sudeste 0 -- -- 58
2020-03-10 11:00:00 14.1 2 Norte 6 Este 0 -- -- 52
2020-03-10 10:00:00 12.1 2 Sudeste 6 Sur 0 -- -- 55
2020-03-10 09:00:00 9.4 3 Oeste 6 Sur 0 -- -- 63
2020-03-10 08:00:00 7 0 Calma 8 Norte 0 -- -- 69
2020-03-10 07:00:00 7.2 3 Sudoeste 8 Norte 0 -- -- 64
2020-03-10 06:00:00 9.7 5 Oeste 26 Nordeste 0 -- -- 54
2020-03-10 05:00:00 11.5 10 Norte 26 Norte 0 -- -- 48
2020-03-10 04:00:00 11.5 7 Nordeste 23 Nordeste 0 -- -- 49
2020-03-10 03:00:00 11.6 8 Nordeste 31 Este 0 -- -- 49
2020-03-10 02:00:00 11.9 8 Este 35 Norte 0 -- -- 47
2020-03-10 01:00:00 12.1 10 Sudoeste 49 Norte 0 -- -- 45
2020-03-10 00:00:00 12.3 25 Norte 51 Norte 0 -- -- 45
2020-03-09 23:00:00 11.6 9 Noroeste 26 Noroeste 0 -- -- 49
2020-03-09 22:00:00 10.9 12 Norte 21 Norte 0 -- -- 54
2020-03-09 21:00:00 10.9 9 Norte 14 Norte 0 -- -- 53
2020-03-09 20:00:00 13.1 3 Nordeste 24 Noroeste 0 -- -- 47
2020-03-09 19:00:00 15.4 10 Norte 40 Noroeste 0 -- -- 39
2020-03-09 18:00:00 17.2 21 Norte 47 Norte 0 -- -- 36
2020-03-09 17:00:00 18.2 23 Norte 47 Norte 0 -- -- 33
2020-03-09 16:00:00 19.1 17 Nordeste 33 Nordeste 0 -- -- 28
2020-03-09 15:00:00 19.5 17 Norte 41 Noroeste 0 -- -- 26
2020-03-09 14:00:00 19.2 13 Noroeste 31 Norte 0 -- -- 28
2020-03-09 13:00:00 17.2 13 Nordeste 25 Nordeste 0 -- -- 32
2020-03-09 12:00:00 16.4 11 Norte 30 Noroeste 0 -- -- 37
2020-03-09 11:00:00 15 11 Norte 32 Norte 0 -- -- 39
2020-03-09 10:00:00 13.4 7 Nordeste 21 Norte 0 -- -- 48
2020-03-09 09:00:00 12.3 9 Nordeste 22 Norte 0 -- -- 56
2020-03-09 08:00:00 11.5 6 Este 22 Nordeste 0 -- -- 58
2020-03-09 07:00:00 10.4 3 Nordeste 14 Este 0 -- -- 66
2020-03-09 06:00:00 11.2 6 Norte 27 Norte 0 -- -- 63
2020-03-09 05:00:00 13 12 Norte 35 Noroeste 0 -- -- 53
2020-03-09 04:00:00 13.3 13 Noroeste 46 Norte 0 -- -- 54
2020-03-09 03:00:00 13.4 15 Norte 38 Norte 0 -- -- 54
2020-03-09 02:00:00 12.2 9 Noroeste 24 Noroeste 0 -- -- 55
2020-03-09 01:00:00 6.8 3 Oeste 10 Nordeste 0 -- -- 71
2020-03-09 00:00:00 8.2 0 Calma 9 Noroeste 0 -- -- 70
2020-03-08 23:00:00 8.7 2 Sudoeste 6 Norte 0 -- -- 70
2020-03-08 22:00:00 10.3 2 Oeste 8 Oeste 0 -- -- 64
2020-03-08 21:00:00 12.1 0 Calma 7 Norte 0 -- -- 59
2020-03-08 20:00:00 13.2 5 Norte 9 Norte 0 -- -- 55
2020-03-08 19:00:00 15.6 3 Nordeste 14 Sur 0 -- -- 48
2020-03-08 18:00:00 17.2 9 Sudoeste 18 Sur 0 -- -- 43
2020-03-08 17:00:00 19.8 9 Sur 22 Sur 0 -- -- 38
2020-03-08 16:00:00 20.3 14 Sur 22 Sur 0 -- -- 36
2020-03-08 15:00:00 19.5 13 Sudoeste 22 Sudoeste 0 -- -- 38
2020-03-08 14:00:00 21 11 Sudoeste 31 Sur 0 -- -- 33
2020-03-08 13:00:00 20.3 6 Sur 14 Sur 0 -- -- 32
2020-03-08 12:00:00 18.7 5 Sur 18 Sudoeste 0 -- -- 32
2020-03-08 11:00:00 17.5 6 Sudoeste 12 Sur 0 -- -- 37
2020-03-08 10:00:00 13.2 4 Sur 6 Sur 0 -- -- 46
2020-03-08 09:00:00 7.5 3 Sudoeste 6 Sudoeste 0 -- -- 70
2020-03-08 08:00:00 2.8 2 Norte 7 Sudoeste 0 -- -- 83
2020-03-08 07:00:00 1.9 0 Calma 7 Oeste 0 -- -- 84
2020-03-08 06:00:00 3.2 0 Calma 5 Oeste 0 -- -- 79
2020-03-08 05:00:00 3.7 4 Norte 12 Norte 0 -- -- 79
2020-03-08 04:00:00 4.6 2 Oeste 13 Norte 0 -- -- 76
2020-03-08 03:00:00 5.6 4 Norte 13 Norte 0 -- -- 74
2020-03-08 02:00:00 6.3 3 Noroeste 11 Sudoeste 0 -- -- 70
2020-03-08 01:00:00 7.4 6 Oeste 19 Norte 0 -- -- 66
2020-03-08 00:00:00 8.1 4 Sudoeste 10 Norte 0 -- -- 62